sensor_id;sensor_type;location;lat;lon;timestamp;pressure;altitude;pressure_sealevel;temperature;humidity
46045;BME280;31781;54.094;13.428;2023-02-28T00:00:53;103338.97;;;-0.52;64.06
46045;BME280;31781;54.094;13.428;2023-02-28T00:02:56;103338.25;;;-0.56;63.96
46045;BME280;31781;54.094;13.428;2023-02-28T00:04:58;103341.06;;;-0.59;64.18
46045;BME280;31781;54.094;13.428;2023-02-28T00:07:00;103334.00;;;-0.60;64.51
46045;BME280;31781;54.094;13.428;2023-02-28T00:09:02;103327.84;;;-0.62;65.20
46045;BME280;31781;54.094;13.428;2023-02-28T00:11:06;103334.13;;;-0.63;64.88
46045;BME280;31781;54.094;13.428;2023-02-28T00:13:07;103333.28;;;-0.63;64.51
46045;BME280;31781;54.094;13.428;2023-02-28T00:15:10;103335.13;;;-0.65;64.82
46045;BME280;31781;54.094;13.428;2023-02-28T00:17:12;103334.28;;;-0.66;64.83
46045;BME280;31781;54.094;13.428;2023-02-28T00:19:15;103339.63;;;-0.66;64.38
46045;BME280;31781;54.094;13.428;2023-02-28T00:21:18;103334.28;;;-0.66;64.60
46045;BME280;31781;54.094;13.428;2023-02-28T00:23:20;103336.06;;;-0.66;64.55
46045;BME280;31781;54.094;13.428;2023-02-28T00:25:23;103332.56;;;-0.67;64.43
46045;BME280;31781;54.094;13.428;2023-02-28T00:27:25;103332.56;;;-0.67;64.80
46045;BME280;31781;54.094;13.428;2023-02-28T00:29:26;103341.50;;;-0.68;64.23
46045;BME280;31781;54.094;13.428;2023-02-28T00:31:28;103338.13;;;-0.71;64.79
46045;BME280;31781;54.094;13.428;2023-02-28T00:33:30;103347.88;;;-0.70;64.72
46045;BME280;31781;54.094;13.428;2023-02-28T00:35:33;103341.66;;;-0.71;65.36
46045;BME280;31781;54.094;13.428;2023-02-28T00:37:35;103337.25;;;-0.72;65.09
46045;BME280;31781;54.094;13.428;2023-02-28T00:39:38;103351.53;;;-0.73;65.39
46045;BME280;31781;54.094;13.428;2023-02-28T00:41:40;103343.69;;;-0.76;65.04
46045;BME280;31781;54.094;13.428;2023-02-28T00:43:41;103351.69;;;-0.76;65.16
46045;BME280;31781;54.094;13.428;2023-02-28T00:45:43;103344.59;;;-0.77;65.20
46045;BME280;31781;54.094;13.428;2023-02-28T00:47:45;103349.97;;;-0.77;65.31
46045;BME280;31781;54.094;13.428;2023-02-28T00:49:47;103350.91;;;-0.78;64.90
46045;BME280;31781;54.094;13.428;2023-02-28T00:51:51;103345.63;;;-0.79;64.92
46045;BME280;31781;54.094;13.428;2023-02-28T00:53:53;103343.09;;;-0.82;65.58
46045;BME280;31781;54.094;13.428;2023-02-28T00:55:54;103354.59;;;-0.80;65.28
46045;BME280;31781;54.094;13.428;2023-02-28T00:57:56;103360.88;;;-0.81;65.40
46045;BME280;31781;54.094;13.428;2023-02-28T00:59:58;103356.47;;;-0.82;65.65
46045;BME280;31781;54.094;13.428;2023-02-28T01:01:59;103353.00;;;-0.84;65.36
46045;BME280;31781;54.094;13.428;2023-02-28T01:04:01;103354.88;;;-0.86;65.32
46045;BME280;31781;54.094;13.428;2023-02-28T01:06:03;103362.09;;;-0.88;65.83
46045;BME280;31781;54.094;13.428;2023-02-28T01:08:06;103364.91;;;-0.91;65.58
46045;BME280;31781;54.094;13.428;2023-02-28T01:10:10;103358.84;;;-0.95;65.52
46045;BME280;31781;54.094;13.428;2023-02-28T01:12:12;103367.72;;;-0.94;65.20
46045;BME280;31781;54.094;13.428;2023-02-28T01:14:16;103367.00;;;-0.98;64.83
46045;BME280;31781;54.094;13.428;2023-02-28T01:16:18;103359.13;;;-1.01;65.54
46045;BME280;31781;54.094;13.428;2023-02-28T01:18:21;103361.94;;;-1.04;65.34
46045;BME280;31781;54.094;13.428;2023-02-28T01:20:23;103367.34;;;-1.06;65.59
46045;BME280;31781;54.094;13.428;2023-02-28T01:22:25;103361.13;;;-1.06;65.17
46045;BME280;31781;54.094;13.428;2023-02-28T01:24:28;103361.28;;;-1.09;64.99
46045;BME280;31781;54.094;13.428;2023-02-28T01:26:30;103358.75;;;-1.12;64.53
46045;BME280;31781;54.094;13.428;2023-02-28T01:28:32;103356.22;;;-1.15;64.87
46045;BME280;31781;54.094;13.428;2023-02-28T01:30:34;103353.75;;;-1.20;64.65
46045;BME280;31781;54.094;13.428;2023-02-28T01:32:36;103355.72;;;-1.23;65.15
46045;BME280;31781;54.094;13.428;2023-02-28T01:34:38;103345.94;;;-1.24;65.38
46045;BME280;31781;54.094;13.428;2023-02-28T01:36:40;103352.22;;;-1.25;65.61
46045;BME280;31781;54.094;13.428;2023-02-28T01:38:42;103355.75;;;-1.25;65.87
46045;BME280;31781;54.094;13.428;2023-02-28T01:40:47;103356.72;;;-1.26;65.65
46045;BME280;31781;54.094;13.428;2023-02-28T01:42:49;103355.91;;;-1.28;66.25
46045;BME280;31781;54.094;13.428;2023-02-28T01:44:58;103352.38;;;-1.28;65.76
46045;BME280;31781;54.094;13.428;2023-02-28T01:47:00;103355.13;;;-1.30;66.18
46045;BME280;31781;54.094;13.428;2023-02-28T01:49:06;103354.25;;;-1.30;65.69
46045;BME280;31781;54.094;13.428;2023-02-28T01:51:12;103354.25;;;-1.30;66.10
46045;BME280;31781;54.094;13.428;2023-02-28T01:53:19;103348.03;;;-1.31;66.17
46045;BME280;31781;54.094;13.428;2023-02-28T01:55:24;103350.72;;;-1.31;66.03
46045;BME280;31781;54.094;13.428;2023-02-28T01:57:32;103347.16;;;-1.31;65.16
46045;BME280;31781;54.094;13.428;2023-02-28T01:59:38;103353.44;;;-1.32;65.16
46045;BME280;31781;54.094;13.428;2023-02-28T02:01:42;103349.06;;;-1.33;65.77
46045;BME280;31781;54.094;13.428;2023-02-28T02:03:44;103351.72;;;-1.33;65.68
46045;BME280;31781;54.094;13.428;2023-02-28T02:05:46;103349.97;;;-1.34;65.26
46045;BME280;31781;54.094;13.428;2023-02-28T02:07:51;103357.19;;;-1.36;65.70
46045;BME280;31781;54.094;13.428;2023-02-28T02:10:00;103351.84;;;-1.36;64.62
46045;BME280;31781;54.094;13.428;2023-02-28T02:12:08;103353.66;;;-1.37;65.17
46045;BME280;31781;54.094;13.428;2023-02-28T02:14:40;103359.94;;;-1.38;64.27
46045;BME280;31781;54.094;13.428;2023-02-28T02:16:55;103357.41;;;-1.41;64.75
46045;BME280;31781;54.094;13.428;2023-02-28T02:19:14;103353.91;;;-1.43;64.93
46045;BME280;31781;54.094;13.428;2023-02-28T02:24:02;103355.00;;;-1.47;64.63
46045;BME280;31781;54.094;13.428;2023-02-28T02:26:21;103354.19;;;-1.49;64.57
46045;BME280;31781;54.094;13.428;2023-02-28T02:28:52;103354.19;;;-1.49;64.58
46045;BME280;31781;54.094;13.428;2023-02-28T02:31:20;103351.59;;;-1.51;65.16
46045;BME280;31781;54.094;13.428;2023-02-28T02:33:58;103349.88;;;-1.52;64.95
46045;BME280;31781;54.094;13.428;2023-02-28T02:36:05;103358.88;;;-1.54;65.39
46045;BME280;31781;54.094;13.428;2023-02-28T02:38:12;103362.53;;;-1.57;65.20
46045;BME280;31781;54.094;13.428;2023-02-28T02:40:21;103360.88;;;-1.59;65.81
46045;BME280;31781;54.094;13.428;2023-02-28T02:42:27;103363.63;;;-1.61;65.85
46045;BME280;31781;54.094;13.428;2023-02-28T02:44:34;103362.75;;;-1.61;66.08
46045;BME280;31781;54.094;13.428;2023-02-28T02:46:41;103359.28;;;-1.63;66.12
46045;BME280;31781;54.094;13.428;2023-02-28T02:48:45;103362.88;;;-1.64;66.21
46045;BME280;31781;54.094;13.428;2023-02-28T02:50:52;103358.47;;;-1.65;65.84
46045;BME280;31781;54.094;13.428;2023-02-28T02:52:57;103357.59;;;-1.66;66.00
46045;BME280;31781;54.094;13.428;2023-02-28T02:55:02;103363.91;;;-1.67;65.92
46045;BME280;31781;54.094;13.428;2023-02-28T02:57:07;103363.94;;;-1.68;65.42
46045;BME280;31781;54.094;13.428;2023-02-28T02:59:12;103365.81;;;-1.70;65.42
46045;BME280;31781;54.094;13.428;2023-02-28T03:01:19;103356.13;;;-1.73;65.47
46045;BME280;31781;54.094;13.428;2023-02-28T03:03:23;103362.44;;;-1.74;65.92
46045;BME280;31781;54.094;13.428;2023-02-28T03:05:26;103358.88;;;-1.74;66.01
46045;BME280;31781;54.094;13.428;2023-02-28T03:07:31;103354.47;;;-1.75;66.12
46045;BME280;31781;54.094;13.428;2023-02-28T03:09:34;103357.13;;;-1.75;66.31
46045;BME280;31781;54.094;13.428;2023-02-28T03:11:37;103353.66;;;-1.77;65.39
46045;BME280;31781;54.094;13.428;2023-02-28T03:16:21;103351.22;;;-1.82;64.65
46045;BME280;31781;54.094;13.428;2023-02-28T03:18:29;103355.72;;;-1.84;65.42
46045;BME280;31781;54.094;13.428;2023-02-28T03:20:40;103353.19;;;-1.87;64.69
46045;BME280;31781;54.094;13.428;2023-02-28T03:22:57;103361.25;;;-1.88;64.97
46045;BME280;31781;54.094;13.428;2023-02-28T03:25:08;103355.19;;;-1.92;65.00
46045;BME280;31781;54.094;13.428;2023-02-28T03:27:15;103357.09;;;-1.96;65.26
46045;BME280;31781;54.094;13.428;2023-02-28T03:29:23;103360.72;;;-1.97;65.10
46045;BME280;31781;54.094;13.428;2023-02-28T03:31:33;103357.19;;;-1.97;65.55
46045;BME280;31781;54.094;13.428;2023-02-28T03:33:42;103357.19;;;-1.97;65.83
46045;BME280;31781;54.094;13.428;2023-02-28T03:35:50;103354.53;;;-1.97;65.30
46045;BME280;31781;54.094;13.428;2023-02-28T03:38:06;103346.53;;;-1.97;65.20
46045;BME280;31781;54.094;13.428;2023-02-28T03:40:13;103355.41;;;-1.97;65.71
46045;BME280;31781;54.094;13.428;2023-02-28T03:42:19;103348.31;;;-1.98;65.82
46045;BME280;31781;54.094;13.428;2023-02-28T03:44:25;103343.03;;;-1.99;65.77
46045;BME280;31781;54.094;13.428;2023-02-28T03:46:32;103351.91;;;-1.99;65.63
46045;BME280;31781;54.094;13.428;2023-02-28T03:48:42;103346.56;;;-1.99;65.89
46045;BME280;31781;54.094;13.428;2023-02-28T03:50:47;103345.78;;;-2.01;65.76
46045;BME280;31781;54.094;13.428;2023-02-28T03:52:56;103345.84;;;-2.02;65.63
46045;BME280;31781;54.094;13.428;2023-02-28T03:55:02;103350.25;;;-2.01;65.16
46045;BME280;31781;54.094;13.428;2023-02-28T03:57:11;103352.97;;;-2.03;65.37
46045;BME280;31781;54.094;13.428;2023-02-28T03:59:20;103349.44;;;-2.03;65.31
46045;BME280;31781;54.094;13.428;2023-02-28T04:01:29;103355.72;;;-2.04;65.85
46045;BME280;31781;54.094;13.428;2023-02-28T04:03:32;103354.91;;;-2.06;65.62
46045;BME280;31781;54.094;13.428;2023-02-28T04:05:46;103361.97;;;-2.05;64.86
46045;BME280;31781;54.094;13.428;2023-02-28T04:07:50;103358.53;;;-2.07;65.78
46045;BME280;31781;54.094;13.428;2023-02-28T04:09:53;103355.91;;;-2.09;66.30
46045;BME280;31781;54.094;13.428;2023-02-28T04:11:55;103355.91;;;-2.09;65.69
46045;BME280;31781;54.094;13.428;2023-02-28T04:13:56;103355.13;;;-2.11;65.84
46045;BME280;31781;54.094;13.428;2023-02-28T04:15:58;103360.44;;;-2.11;66.40
46045;BME280;31781;54.094;13.428;2023-02-28T04:18:00;103366.63;;;-2.10;66.09
46045;BME280;31781;54.094;13.428;2023-02-28T04:20:02;103354.25;;;-2.11;66.47
46045;BME280;31781;54.094;13.428;2023-02-28T04:22:03;103356.97;;;-2.13;66.01
46045;BME280;31781;54.094;13.428;2023-02-28T04:24:05;103353.41;;;-2.13;66.28
46045;BME280;31781;54.094;13.428;2023-02-28T04:26:08;103359.66;;;-2.14;65.73
46045;BME280;31781;54.094;13.428;2023-02-28T04:28:10;103357.97;;;-2.15;65.68
46045;BME280;31781;54.094;13.428;2023-02-28T04:30:12;103358.88;;;-2.16;66.59
46045;BME280;31781;54.094;13.428;2023-02-28T04:32:14;103352.69;;;-2.17;66.86
46045;BME280;31781;54.094;13.428;2023-02-28T04:34:16;103360.69;;;-2.17;66.40
46045;BME280;31781;54.094;13.428;2023-02-28T04:36:18;103351.81;;;-2.17;66.57
46045;BME280;31781;54.094;13.428;2023-02-28T04:38:20;103350.09;;;-2.18;65.96
46045;BME280;31781;54.094;13.428;2023-02-28T04:40:21;103355.44;;;-2.18;66.09
46045;BME280;31781;54.094;13.428;2023-02-28T04:42:24;103353.69;;;-2.19;66.55
46045;BME280;31781;54.094;13.428;2023-02-28T04:44:26;103351.94;;;-2.20;66.52
46045;BME280;31781;54.094;13.428;2023-02-28T04:46:28;103364.41;;;-2.21;66.71
46045;BME280;31781;54.094;13.428;2023-02-28T04:48:31;103368.03;;;-2.22;66.32
46045;BME280;31781;54.094;13.428;2023-02-28T04:50:33;103368.94;;;-2.23;66.17
46045;BME280;31781;54.094;13.428;2023-02-28T04:52:35;103368.06;;;-2.23;66.07
46045;BME280;31781;54.094;13.428;2023-02-28T04:54:36;103368.13;;;-2.25;65.88
46045;BME280;31781;54.094;13.428;2023-02-28T04:56:38;103369.06;;;-2.26;65.98
46045;BME280;31781;54.094;13.428;2023-02-28T04:58:42;103362.88;;;-2.26;66.48
46045;BME280;31781;54.094;13.428;2023-02-28T05:00:43;103362.91;;;-2.28;66.41
46045;BME280;31781;54.094;13.428;2023-02-28T05:02:45;103359.38;;;-2.28;66.70
46045;BME280;31781;54.094;13.428;2023-02-28T05:04:47;103360.34;;;-2.29;66.34
46045;BME280;31781;54.094;13.428;2023-02-28T05:06:48;103364.78;;;-2.30;66.69
46045;BME280;31781;54.094;13.428;2023-02-28T05:08:50;103363.09;;;-2.32;65.84
46045;BME280;31781;54.094;13.428;2023-02-28T05:10:52;103370.25;;;-2.33;65.99
46045;BME280;31781;54.094;13.428;2023-02-28T05:12:53;103360.50;;;-2.34;66.37
46045;BME280;31781;54.094;13.428;2023-02-28T05:14:57;103361.47;;;-2.36;66.47
46045;BME280;31781;54.094;13.428;2023-02-28T05:16:59;103356.16;;;-2.36;66.41
46045;BME280;31781;54.094;13.428;2023-02-28T05:19:01;103359.69;;;-2.36;66.36
46045;BME280;31781;54.094;13.428;2023-02-28T05:21:03;103365.03;;;-2.36;67.10
46045;BME280;31781;54.094;13.428;2023-02-28T05:23:05;103362.34;;;-2.36;66.24
46045;BME280;31781;54.094;13.428;2023-02-28T05:25:08;103363.31;;;-2.37;66.81
46045;BME280;31781;54.094;13.428;2023-02-28T05:27:12;103363.31;;;-2.37;66.70
46045;BME280;31781;54.094;13.428;2023-02-28T05:29:13;103363.34;;;-2.38;66.40
46045;BME280;31781;54.094;13.428;2023-02-28T05:31:17;103366.91;;;-2.38;66.30
46045;BME280;31781;54.094;13.428;2023-02-28T05:33:18;103371.41;;;-2.40;66.49
46045;BME280;31781;54.094;13.428;2023-02-28T05:35:20;103371.41;;;-2.40;66.68
46045;BME280;31781;54.094;13.428;2023-02-28T05:37:21;103375.03;;;-2.41;66.45
46045;BME280;31781;54.094;13.428;2023-02-28T05:39:23;103375.94;;;-2.42;66.46
46045;BME280;31781;54.094;13.428;2023-02-28T05:41:25;103375.94;;;-2.42;66.23
46045;BME280;31781;54.094;13.428;2023-02-28T05:43:26;103375.16;;;-2.44;65.83
46045;BME280;31781;54.094;13.428;2023-02-28T05:45:28;103383.16;;;-2.44;66.05
46045;BME280;31781;54.094;13.428;2023-02-28T05:47:31;103375.25;;;-2.47;66.17
46045;BME280;31781;54.094;13.428;2023-02-28T05:49:33;103371.78;;;-2.49;66.19
46045;BME280;31781;54.094;13.428;2023-02-28T05:51:35;103380.72;;;-2.50;66.22
46045;BME280;31781;54.094;13.428;2023-02-28T05:53:36;103383.38;;;-2.50;66.25
46045;BME280;31781;54.094;13.428;2023-02-28T05:55:38;103379.84;;;-2.51;66.69
46045;BME280;31781;54.094;13.428;2023-02-28T05:57:40;103385.13;;;-2.49;66.75
46045;BME280;31781;54.094;13.428;2023-02-28T05:59:41;103382.47;;;-2.49;66.82
46045;BME280;31781;54.094;13.428;2023-02-28T06:01:44;103386.88;;;-2.48;67.19
46045;BME280;31781;54.094;13.428;2023-02-28T06:03:48;103385.91;;;-2.47;66.92
46045;BME280;31781;54.094;13.428;2023-02-28T06:05:50;103385.91;;;-2.47;66.95
46045;BME280;31781;54.094;13.428;2023-02-28T06:07:51;103386.88;;;-2.48;66.93
46045;BME280;31781;54.094;13.428;2023-02-28T06:09:53;103393.03;;;-2.48;66.94
46045;BME280;31781;54.094;13.428;2023-02-28T06:11:54;103394.88;;;-2.48;66.99
46045;BME280;31781;54.094;13.428;2023-02-28T06:13:59;103396.56;;;-2.47;67.10
46045;BME280;31781;54.094;13.428;2023-02-28T06:16:01;103397.53;;;-2.48;67.44
46045;BME280;31781;54.094;13.428;2023-02-28T06:18:03;103389.53;;;-2.48;67.92
46045;BME280;31781;54.094;13.428;2023-02-28T06:20:08;103385.88;;;-2.46;67.55
46045;BME280;31781;54.094;13.428;2023-02-28T06:22:10;103387.53;;;-2.43;67.50
46045;BME280;31781;54.094;13.428;2023-02-28T06:24:12;103385.75;;;-2.42;67.69
46045;BME280;31781;54.094;13.428;2023-02-28T06:26:14;103386.47;;;-2.39;67.77
46045;BME280;31781;54.094;13.428;2023-02-28T06:28:16;103390.91;;;-2.38;67.84
46045;BME280;31781;54.094;13.428;2023-02-28T06:30:17;103396.09;;;-2.35;68.05
46045;BME280;31781;54.094;13.428;2023-02-28T06:32:19;103392.50;;;-2.34;68.66
46045;BME280;31781;54.094;13.428;2023-02-28T06:34:21;103390.63;;;-2.32;68.31
46045;BME280;31781;54.094;13.428;2023-02-28T06:36:24;103388.72;;;-2.28;68.25
46045;BME280;31781;54.094;13.428;2023-02-28T06:38:26;103390.19;;;-2.21;68.75
46045;BME280;31781;54.094;13.428;2023-02-28T06:40:28;103391.59;;;-2.11;68.25
46045;BME280;31781;54.094;13.428;2023-02-28T06:42:30;103389.56;;;-2.06;68.14
46045;BME280;31781;54.094;13.428;2023-02-28T06:44:31;103391.31;;;-2.05;68.05
46045;BME280;31781;54.094;13.428;2023-02-28T06:46:33;103388.50;;;-2.02;68.10
46045;BME280;31781;54.094;13.428;2023-02-28T06:48:35;103389.34;;;-2.00;68.15
46045;BME280;31781;54.094;13.428;2023-02-28T06:50:37;103396.38;;;-1.99;68.67
46045;BME280;31781;54.094;13.428;2023-02-28T06:52:39;103394.41;;;-1.94;68.29
46045;BME280;31781;54.094;13.428;2023-02-28T06:54:41;103387.13;;;-1.90;68.63
46045;BME280;31781;54.094;13.428;2023-02-28T06:56:43;103394.03;;;-1.85;67.76
46045;BME280;31781;54.094;13.428;2023-02-28T06:58:46;103395.56;;;-1.79;68.12
46045;BME280;31781;54.094;13.428;2023-02-28T07:00:50;103399.78;;;-1.74;67.86
46045;BME280;31781;54.094;13.428;2023-02-28T07:02:52;103398.66;;;-1.68;68.05
46045;BME280;31781;54.094;13.428;2023-02-28T07:04:54;103401.00;;;-1.61;67.94
46045;BME280;31781;54.094;13.428;2023-02-28T07:06:56;103406.88;;;-1.53;67.53
46045;BME280;31781;54.094;13.428;2023-02-28T07:08:59;103403.88;;;-1.45;67.99
46045;BME280;31781;54.094;13.428;2023-02-28T07:11:01;103406.19;;;-1.37;68.07
46045;BME280;31781;54.094;13.428;2023-02-28T07:13:07;103404.91;;;-1.29;68.24
46045;BME280;31781;54.094;13.428;2023-02-28T07:15:10;103402.72;;;-1.19;68.56
46045;BME280;31781;54.094;13.428;2023-02-28T07:17:12;103408.50;;;-1.10;68.12
46045;BME280;31781;54.094;13.428;2023-02-28T07:19:13;103408.09;;;-1.01;68.17
46045;BME280;31781;54.094;13.428;2023-02-28T07:21:15;103403.13;;;-0.89;68.63
46045;BME280;31781;54.094;13.428;2023-02-28T07:23:17;103404.38;;;-0.78;68.09
46045;BME280;31781;54.094;13.428;2023-02-28T07:25:21;103399.41;;;-0.67;67.87
46045;BME280;31781;54.094;13.428;2023-02-28T07:27:23;103396.13;;;-0.55;67.96
46045;BME280;31781;54.094;13.428;2023-02-28T07:29:28;103406.19;;;-0.41;68.46
46045;BME280;31781;54.094;13.428;2023-02-28T07:31:30;103408.19;;;-0.27;67.79
46045;BME280;31781;54.094;13.428;2023-02-28T07:33:33;103411.94;;;-0.13;68.45
46045;BME280;31781;54.094;13.428;2023-02-28T07:35:35;103404.94;;;0.02;68.16
46045;BME280;31781;54.094;13.428;2023-02-28T07:37:36;103412.22;;;0.17;67.97
46045;BME280;31781;54.094;13.428;2023-02-28T07:39:38;103418.59;;;0.32;68.29
46045;BME280;31781;54.094;13.428;2023-02-28T07:41:41;103430.28;;;0.48;67.79
46045;BME280;31781;54.094;13.428;2023-02-28T07:43:43;103424.97;;;0.64;68.60
46045;BME280;31781;54.094;13.428;2023-02-28T07:45:45;103436.63;;;0.80;67.93
46045;BME280;31781;54.094;13.428;2023-02-28T07:47:46;103429.59;;;0.94;68.15
46045;BME280;31781;54.094;13.428;2023-02-28T07:49:48;103437.72;;;1.10;68.69
46045;BME280;31781;54.094;13.428;2023-02-28T07:51:50;103441.19;;;1.28;68.38
46045;BME280;31781;54.094;13.428;2023-02-28T07:53:51;103441.25;;;1.43;68.32
46045;BME280;31781;54.094;13.428;2023-02-28T07:55:55;103435.03;;;1.59;67.90
46045;BME280;31781;54.094;13.428;2023-02-28T07:57:58;103435.97;;;1.73;67.35
46045;BME280;31781;54.094;13.428;2023-02-28T08:00:00;103425.22;;;1.89;67.03
46045;BME280;31781;54.094;13.428;2023-02-28T08:02:02;103433.38;;;2.03;66.84
46045;BME280;31781;54.094;13.428;2023-02-28T08:04:04;103430.75;;;2.17;66.71
46045;BME280;31781;54.094;13.428;2023-02-28T08:06:08;103431.75;;;2.30;66.03
46045;BME280;31781;54.094;13.428;2023-02-28T08:08:10;103421.84;;;2.47;66.07
46045;BME280;31781;54.094;13.428;2023-02-28T08:10:11;103423.69;;;2.60;66.30
46045;BME280;31781;54.094;13.428;2023-02-28T08:12:13;103424.59;;;2.75;65.84
46045;BME280;31781;54.094;13.428;2023-02-28T08:14:16;103417.53;;;2.88;64.96
46045;BME280;31781;54.094;13.428;2023-02-28T08:16:18;103410.34;;;3.03;65.65
46045;BME280;31781;54.094;13.428;2023-02-28T08:18:19;103413.09;;;3.15;64.47
46045;BME280;31781;54.094;13.428;2023-02-28T08:20:21;103410.53;;;3.28;63.70
46045;BME280;31781;54.094;13.428;2023-02-28T08:22:24;103412.31;;;3.41;64.30
46045;BME280;31781;54.094;13.428;2023-02-28T08:24:25;103405.22;;;3.55;64.56
46045;BME280;31781;54.094;13.428;2023-02-28T08:26:28;103398.94;;;3.68;63.82
46045;BME280;31781;54.094;13.428;2023-02-28T08:28:30;103398.88;;;3.82;63.67
46045;BME280;31781;54.094;13.428;2023-02-28T08:30:33;103400.66;;;3.96;62.80
46045;BME280;31781;54.094;13.428;2023-02-28T08:32:34;103405.16;;;4.10;62.42
46045;BME280;31781;54.094;13.428;2023-02-28T08:34:38;103397.09;;;4.22;61.80
46045;BME280;31781;54.094;13.428;2023-02-28T08:36:41;103391.63;;;4.36;62.68
46045;BME280;31781;54.094;13.428;2023-02-28T08:38:42;103396.19;;;4.49;63.04
46045;BME280;31781;54.094;13.428;2023-02-28T08:40:45;103379.81;;;4.64;62.70
46045;BME280;31781;54.094;13.428;2023-02-28T08:42:47;103376.16;;;4.78;62.06
46045;BME280;31781;54.094;13.428;2023-02-28T08:44:49;103384.91;;;4.94;60.92
46045;BME280;31781;54.094;13.428;2023-02-28T08:46:53;103389.31;;;5.08;59.68
46045;BME280;31781;54.094;13.428;2023-02-28T08:48:56;103379.59;;;5.18;58.50
46045;BME280;31781;54.094;13.428;2023-02-28T08:50:59;103381.31;;;5.31;58.64
46045;BME280;31781;54.094;13.428;2023-02-28T08:53:08;103377.84;;;5.42;57.44
46045;BME280;31781;54.094;13.428;2023-02-28T08:55:10;103379.66;;;5.54;57.71
46045;BME280;31781;54.094;13.428;2023-02-28T08:57:11;103380.47;;;5.67;57.08
46045;BME280;31781;54.094;13.428;2023-02-28T08:59:13;103386.66;;;5.80;56.75
46045;BME280;31781;54.094;13.428;2023-02-28T09:01:16;103382.22;;;5.92;56.65
46045;BME280;31781;54.094;13.428;2023-02-28T09:03:20;103387.59;;;6.05;55.90
46045;BME280;31781;54.094;13.428;2023-02-28T09:05:24;103389.38;;;6.17;55.51
46045;BME280;31781;54.094;13.428;2023-02-28T09:07:25;103383.88;;;6.29;55.92
46045;BME280;31781;54.094;13.428;2023-02-28T09:09:27;103383.91;;;6.41;55.15
46045;BME280;31781;54.094;13.428;2023-02-28T09:11:29;103386.56;;;6.53;55.58
46045;BME280;31781;54.094;13.428;2023-02-28T09:13:32;103388.28;;;6.65;54.94
46045;BME280;31781;54.094;13.428;2023-02-28T09:15:33;103386.38;;;6.78;55.01
46045;BME280;31781;54.094;13.428;2023-02-28T09:17:35;103391.66;;;6.91;55.25
46045;BME280;31781;54.094;13.428;2023-02-28T09:19:38;103392.44;;;7.04;54.67
46045;BME280;31781;54.094;13.428;2023-02-28T09:21:40;103397.50;;;7.20;53.10
46045;BME280;31781;54.094;13.428;2023-02-28T09:23:42;103394.53;;;7.34;53.16
46045;BME280;31781;54.094;13.428;2023-02-28T09:25:46;103394.28;;;7.48;54.43
46045;BME280;31781;54.094;13.428;2023-02-28T09:27:47;103403.88;;;7.63;54.00
46045;BME280;31781;54.094;13.428;2023-02-28T09:29:50;103399.91;;;7.78;53.14
46045;BME280;31781;54.094;13.428;2023-02-28T09:31:51;103400.47;;;7.93;52.25
46045;BME280;31781;54.094;13.428;2023-02-28T09:33:57;103399.31;;;8.07;51.51
46045;BME280;31781;54.094;13.428;2023-02-28T09:36:02;103406.28;;;8.20;52.57
46045;BME280;31781;54.094;13.428;2023-02-28T09:38:05;103406.16;;;8.33;51.17
46045;BME280;31781;54.094;13.428;2023-02-28T09:40:09;103410.56;;;8.45;50.04
46045;BME280;31781;54.094;13.428;2023-02-28T09:42:19;103412.09;;;8.59;52.62
46045;BME280;31781;54.094;13.428;2023-02-28T09:44:28;103411.03;;;8.71;51.19
46045;BME280;31781;54.094;13.428;2023-02-28T09:46:33;103415.44;;;8.83;49.62
46045;BME280;31781;54.094;13.428;2023-02-28T09:48:41;103409.06;;;8.94;49.61
46045;BME280;31781;54.094;13.428;2023-02-28T09:50:48;103408.25;;;9.03;49.06
46045;BME280;31781;54.094;13.428;2023-02-28T09:52:54;103401.00;;;9.13;49.38
46045;BME280;31781;54.094;13.428;2023-02-28T09:55:19;103406.09;;;9.27;51.25
46045;BME280;31781;54.094;13.428;2023-02-28T09:57:33;103408.25;;;9.33;49.95
46045;BME280;31781;54.094;13.428;2023-02-28T09:59:44;103403.13;;;9.40;48.74
46045;BME280;31781;54.094;13.428;2023-02-28T10:01:56;103402.31;;;9.49;48.59
46045;BME280;31781;54.094;13.428;2023-02-28T10:04:05;103400.63;;;9.57;49.26
46045;BME280;31781;54.094;13.428;2023-02-28T10:06:14;103401.38;;;9.69;48.88
46045;BME280;31781;54.094;13.428;2023-02-28T10:08:22;103407.84;;;9.77;49.54
46045;BME280;31781;54.094;13.428;2023-02-28T10:10:30;103406.56;;;9.91;48.38
46045;BME280;31781;54.094;13.428;2023-02-28T10:12:38;103409.91;;;10.04;48.27
46045;BME280;31781;54.094;13.428;2023-02-28T10:14:45;103406.81;;;10.18;47.64
46045;BME280;31781;54.094;13.428;2023-02-28T10:16:50;103397.50;;;10.31;45.76
46045;BME280;31781;54.094;13.428;2023-02-28T10:18:56;103399.06;;;10.43;45.75
46045;BME280;31781;54.094;13.428;2023-02-28T10:20:58;103399.94;;;10.53;45.75
46045;BME280;31781;54.094;13.428;2023-02-28T10:23:05;103392.47;;;10.64;47.40
46045;BME280;31781;54.094;13.428;2023-02-28T10:25:18;103391.47;;;10.75;47.78
46045;BME280;31781;54.094;13.428;2023-02-28T10:27:22;103389.41;;;10.87;45.32
46045;BME280;31781;54.094;13.428;2023-02-28T10:29:24;103394.00;;;10.96;44.08
46045;BME280;31781;54.094;13.428;2023-02-28T10:31:26;103382.34;;;11.03;42.86
46045;BME280;31781;54.094;13.428;2023-02-28T10:33:31;103391.34;;;11.13;43.41
46045;BME280;31781;54.094;13.428;2023-02-28T10:35:33;103390.47;;;11.22;43.67
46045;BME280;31781;54.094;13.428;2023-02-28T10:37:37;103385.97;;;11.31;44.58
46045;BME280;31781;54.094;13.428;2023-02-28T10:39:41;103382.50;;;11.39;42.63
46045;BME280;31781;54.094;13.428;2023-02-28T10:41:45;103393.38;;;11.48;41.74
46045;BME280;31781;54.094;13.428;2023-02-28T10:43:46;103389.72;;;11.57;41.71
46045;BME280;31781;54.094;13.428;2023-02-28T10:45:55;103386.09;;;11.66;44.49
46045;BME280;31781;54.094;13.428;2023-02-28T10:47:59;103381.63;;;11.75;42.11